Time;durP1;ratioP1;P1;durP2;ratioP2;P2;SDS_P1;SDS_P2;PMS_P1;PMS_P2;Temp;Humidity;BMP_temperature;BMP_pressure;BME280_temperature;BME280_humidity;BME280_pressure;Samples;Min_cycle;Max_cycle;Signal;HPM_P1;HPM_P2
2023/03/22 00:00:35;;;;;;;6.67;5.60;;;14.30;99.90;;;;;;5046371;28;20687;-32
2023/03/22 00:03:03;;;;;;;7.00;5.17;;;14.30;99.90;;;;;;5047453;28;20226;-32
2023/03/22 00:05:33;;;;;;;6.57;5.40;;;14.30;99.90;;;;;;5047734;28;20211;-32
2023/03/22 00:08:05;;;;;;;6.80;5.20;;;14.30;99.90;;;;;;5045866;28;20232;-32
2023/03/22 00:10:41;;;;;;;6.43;5.23;;;14.20;99.90;;;;;;5045997;28;20246;-32
2023/03/22 00:13:10;;;;;;;7.07;4.90;;;14.20;99.90;;;;;;5047277;28;20617;-32
2023/03/22 00:15:38;;;;;;;6.10;4.93;;;14.20;99.90;;;;;;5047246;28;20287;-32
2023/03/22 00:18:07;;;;;;;6.03;5.07;;;14.20;99.90;;;;;;5046917;28;20240;-32
2023/03/22 00:20:36;;;;;;;6.40;5.00;;;14.20;99.90;;;;;;5047011;28;20202;-32
2023/03/22 00:23:07;;;;;;;7.50;4.73;;;14.10;99.90;;;;;;5046288;28;20200;-32
2023/03/22 00:25:37;;;;;;;8.60;5.30;;;14.10;99.90;;;;;;5045836;28;20299;-32
2023/03/22 00:28:06;;;;;;;6.63;4.93;;;14.10;99.90;;;;;;5045785;28;20263;-32
2023/03/22 00:30:36;;;;;;;6.30;5.20;;;14.10;99.90;;;;;;5047346;28;20644;-31
2023/03/22 00:33:09;;;;;;;6.23;4.70;;;14.00;99.90;;;;;;5045646;28;20211;-32
2023/03/22 00:35:38;;;;;;;6.83;4.67;;;14.00;99.90;;;;;;5046541;28;20211;-32
2023/03/22 00:38:12;;;;;;;5.77;4.67;;;14.00;99.90;;;;;;5044378;28;20243;-32
2023/03/22 00:40:50;;;;;;;6.67;4.33;;;14.00;99.90;;;;;;5046518;28;20748;-32
2023/03/22 00:43:22;;;;;;;5.67;4.70;;;14.00;99.90;;;;;;5046424;28;20216;-32
2023/03/22 00:45:49;;;;;;;5.73;4.40;;;14.00;99.90;;;;;;5045217;28;20239;-32
2023/03/22 00:48:19;;;;;;;6.50;4.17;;;14.00;99.90;;;;;;5046536;28;20293;-32
2023/03/22 00:50:56;;;;;;;6.00;4.30;;;14.00;99.90;;;;;;5046408;28;20216;-32
2023/03/22 00:53:24;;;;;;;5.40;4.47;;;13.90;99.90;;;;;;5046209;28;20323;-32
2023/03/22 00:55:52;;;;;;;7.97;4.97;;;13.90;99.90;;;;;;5045601;28;20608;-32
2023/03/22 00:58:22;;;;;;;5.50;4.13;;;13.90;99.90;;;;;;5045078;28;20204;-32
2023/03/22 01:00:54;;;;;;;6.90;4.37;;;13.90;99.90;;;;;;5045046;28;20208;-32
2023/03/22 01:03:21;;;;;;;6.37;4.17;;;13.90;99.90;;;;;;5046655;28;20212;-32
2023/03/22 01:05:54;;;;;;;8.90;4.20;;;13.90;99.90;;;;;;5046528;28;20233;-32
2023/03/22 01:08:32;;;;;;;5.87;4.00;;;13.90;99.90;;;;;;5046288;28;20285;-31
2023/03/22 01:11:02;;;;;;;6.77;4.17;;;13.90;99.90;;;;;;5046236;28;20896;-32
2023/03/22 01:13:32;;;;;;;6.53;3.87;;;13.90;99.90;;;;;;5046203;28;20220;-32
2023/03/22 01:16:02;;;;;;;4.93;4.03;;;13.90;99.90;;;;;;5046256;28;20194;-32
2023/03/22 01:18:30;;;;;;;5.50;3.80;;;13.90;99.90;;;;;;5046720;28;20204;-32
2023/03/22 01:21:00;;;;;;;5.83;3.70;;;13.80;99.90;;;;;;5044916;28;20196;-32
2023/03/22 01:23:30;;;;;;;6.17;3.50;;;13.90;99.90;;;;;;5044879;28;20303;-32
2023/03/22 01:25:58;;;;;;;6.17;3.37;;;13.90;99.90;;;;;;5046059;28;20699;-32
2023/03/22 01:28:25;;;;;;;5.53;3.57;;;13.80;99.90;;;;;;5045957;28;20337;-32
2023/03/22 01:30:54;;;;;;;8.20;4.10;;;13.80;99.90;;;;;;5044256;28;20298;-32
2023/03/22 01:33:21;;;;;;;5.43;3.70;;;13.80;99.90;;;;;;5044910;28;20197;-32
2023/03/22 01:35:48;;;;;;;5.20;3.10;;;13.80;99.90;;;;;;5046240;28;20687;-32
2023/03/22 01:38:16;;;;;;;5.40;3.70;;;13.80;99.90;;;;;;5044492;28;20215;-31
2023/03/22 01:40:45;;;;;;;5.03;3.20;;;13.80;99.90;;;;;;5045905;28;20212;-31
2023/03/22 01:43:15;;;;;;;5.77;3.63;;;13.70;99.90;;;;;;5044359;28;20208;-32
2023/03/22 01:45:50;;;;;;;5.53;3.70;;;13.70;99.90;;;;;;5045271;28;20204;-31
2023/03/22 01:48:32;;;;;;;5.50;3.67;;;13.70;99.90;;;;;;5043858;28;20234;-32
2023/03/22 01:51:15;;;;;;;4.03;3.00;;;13.70;99.90;;;;;;5047896;28;20192;-32
2023/03/22 01:53:53;;;;;;;5.10;3.27;;;13.70;99.90;;;;;;5047684;28;20232;-32
2023/03/22 01:56:26;;;;;;;5.13;2.70;;;13.70;99.90;;;;;;5049509;28;20214;-31
2023/03/22 01:58:55;;;;;;;4.70;3.60;;;13.70;99.90;;;;;;5048419;28;20228;-32
2023/03/22 02:01:23;;;;;;;4.20;3.03;;;13.60;99.90;;;;;;5049527;28;20539;-32
2023/03/22 02:04:15;;;;;;;6.73;3.03;;;13.60;99.90;;;;;;5049028;28;20208;-32
2023/03/22 02:06:46;;;;;;;7.47;3.53;;;13.60;99.90;;;;;;5047893;28;20216;-31
2023/03/22 02:09:17;;;;;;;5.67;3.00;;;13.60;99.90;;;;;;5048238;28;20242;-31
2023/03/22 02:12:17;;;;;;;4.43;2.97;;;13.60;99.90;;;;;;5049134;28;20207;-32
2023/03/22 02:15:14;;;;;;;6.20;3.10;;;13.60;99.90;;;;;;5048614;28;20689;-32
2023/03/22 02:18:05;;;;;;;7.20;3.43;;;13.50;99.90;;;;;;5048168;28;20200;-32
2023/03/22 02:21:00;;;;;;;6.00;2.83;;;13.60;99.90;;;;;;5049513;28;20216;-32
2023/03/22 02:24:00;;;;;;;6.17;2.83;;;13.50;99.90;;;;;;5049066;28;20216;-32
2023/03/22 02:27:05;;;;;;;4.97;2.90;;;13.50;99.90;;;;;;5047925;28;20254;-32
2023/03/22 02:29:40;;;;;;;4.13;2.70;;;13.50;99.90;;;;;;5049614;28;20223;-32
2023/03/22 02:32:31;;;;;;;4.03;2.70;;;13.40;99.90;;;;;;5047648;28;20286;-32
2023/03/22 02:35:26;;;;;;;4.97;2.67;;;13.40;99.90;;;;;;5046822;28;20204;-32
2023/03/22 02:38:15;;;;;;;5.27;2.60;;;13.40;99.90;;;;;;5048744;28;20271;-32
2023/03/22 02:40:54;;;;;;;6.37;2.83;;;13.40;99.90;;;;;;5046909;28;20299;-32
2023/03/22 02:43:33;;;;;;;5.27;2.80;;;13.40;99.90;;;;;;5046812;28;20689;-32
2023/03/22 02:46:05;;;;;;;6.00;2.53;;;13.30;99.90;;;;;;5048231;28;20296;-32
2023/03/22 02:48:52;;;;;;;6.83;3.10;;;13.30;99.90;;;;;;5047196;28;20334;-32
2023/03/22 02:51:28;;;;;;;5.83;2.80;;;13.30;99.90;;;;;;5047094;28;20299;-32
2023/03/22 02:54:08;;;;;;;5.40;2.90;;;13.30;99.90;;;;;;5046822;28;20611;-32
2023/03/22 02:57:15;;;;;;;5.50;2.70;;;13.30;99.90;;;;;;5046765;28;20218;-31
2023/03/22 02:59:44;;;;;;;5.70;2.70;;;13.30;99.90;;;;;;5048433;28;20220;-32
2023/03/22 03:02:18;;;;;;;6.63;3.10;;;13.30;99.90;;;;;;5045844;28;20206;-32
2023/03/22 03:04:49;;;;;;;4.33;2.30;;;13.30;99.90;;;;;;5046330;28;20196;-32
2023/03/22 03:07:24;;;;;;;6.53;3.00;;;13.30;99.90;;;;;;5046563;28;20618;-32
2023/03/22 03:09:55;;;;;;;8.10;2.90;;;13.30;99.90;;;;;;5047959;28;20231;-32
2023/03/22 03:12:29;;;;;;;5.77;2.50;;;13.30;99.90;;;;;;5030164;28;20196;-32
2023/03/22 03:14:56;;;;;;;6.57;2.73;;;13.40;99.90;;;;;;5046599;28;20693;-32
2023/03/22 03:17:32;;;;;;;5.17;2.73;;;13.40;99.90;;;;;;5046346;28;20303;-32
2023/03/22 03:20:23;;;;;;;7.60;2.47;;;13.40;99.90;;;;;;5046409;28;20200;-32
2023/03/22 03:23:07;;;;;;;5.43;2.60;;;13.40;99.90;;;;;;5046661;28;20196;-34
2023/03/22 03:25:52;;;;;;;4.83;2.47;;;13.40;99.90;;;;;;5045863;28;20691;-33
2023/03/22 03:28:44;;;;;;;4.13;2.23;;;13.40;99.90;;;;;;5047794;28;20242;-32
2023/03/22 03:31:28;;;;;;;6.50;2.50;;;13.40;99.90;;;;;;5046741;28;20319;-32
2023/03/22 03:34:27;;;;;;;8.53;2.60;;;13.40;99.90;;;;;;5047708;28;20208;-32
2023/03/22 03:37:10;;;;;;;8.60;2.90;;;13.40;99.90;;;;;;5046608;28;20299;-32
2023/03/22 03:39:43;;;;;;;4.97;2.40;;;13.40;99.90;;;;;;5046175;28;20603;-33
2023/03/22 03:42:14;;;;;;;5.57;2.07;;;13.40;99.90;;;;;;5047116;28;20220;-34
2023/03/22 03:44:42;;;;;;;6.30;2.60;;;13.40;99.90;;;;;;5047187;28;20232;-34
2023/03/22 03:47:13;;;;;;;7.50;2.43;;;13.30;99.90;;;;;;5047038;28;20204;-34
2023/03/22 03:49:42;;;;;;;6.97;2.10;;;13.40;99.90;;;;;;5047156;28;20270;-34
2023/03/22 03:52:15;;;;;;;7.10;2.57;;;13.30;99.90;;;;;;5045503;28;20319;-34
2023/03/22 03:54:44;;;;;;;5.57;2.10;;;13.30;99.90;;;;;;5046877;28;20228;-32
2023/03/22 03:57:11;;;;;;;6.50;2.07;;;13.30;99.90;;;;;;5045421;28;20315;-32
2023/03/22 03:59:39;;;;;;;4.83;1.97;;;13.30;99.90;;;;;;5045424;28;20251;-32
2023/03/22 04:02:06;;;;;;;5.57;2.80;;;13.30;99.90;;;;;;5045447;28;20200;-32
2023/03/22 04:04:34;;;;;;;5.47;2.10;;;13.20;99.90;;;;;;5046125;28;20235;-32
2023/03/22 04:07:04;;;;;;;4.80;2.00;;;13.20;99.90;;;;;;5046567;28;20786;-31
2023/03/22 04:09:37;;;;;;;6.00;2.30;;;13.20;99.90;;;;;;5047054;28;20314;-31
2023/03/22 04:12:05;;;;;;;5.63;2.80;;;13.20;99.90;;;;;;5046738;28;20243;-32
2023/03/22 04:14:34;;;;;;;4.80;2.30;;;13.20;99.90;;;;;;5046818;28;20693;-32
2023/03/22 04:17:01;;;;;;;5.23;2.13;;;13.20;99.90;;;;;;5045573;28;20285;-32
2023/03/22 04:19:28;;;;;;;3.83;1.93;;;13.20;99.90;;;;;;5046509;28;20291;-32
2023/03/22 04:21:59;;;;;;;6.00;2.10;;;13.20;99.90;;;;;;5045413;28;20578;-32
2023/03/22 04:24:26;;;;;;;5.97;2.50;;;13.10;99.90;;;;;;5046633;28;20693;-32
2023/03/22 04:26:53;;;;;;;6.53;2.03;;;13.10;99.90;;;;;;5046613;28;20702;-32
2023/03/22 04:29:25;;;;;;;5.43;2.23;;;13.20;99.90;;;;;;5046412;28;20224;-32
2023/03/22 04:31:54;;;;;;;4.00;2.20;;;13.10;99.90;;;;;;5044952;28;20240;-32
2023/03/22 04:34:21;;;;;;;8.13;3.07;;;13.10;99.90;;;;;;5046599;28;20204;-33
2023/03/22 04:36:56;;;;;;;6.17;2.63;;;13.10;99.90;;;;;;5044723;28;20563;-34
2023/03/22 04:39:25;;;;;;;8.23;2.50;;;13.10;99.90;;;;;;5046832;28;20304;-33
2023/03/22 04:41:58;;;;;;;4.07;2.37;;;13.10;99.90;;;;;;5029792;28;20622;-32
2023/03/22 04:44:25;;;;;;;7.93;2.87;;;13.10;99.90;;;;;;5044968;28;20298;-32
2023/03/22 04:46:54;;;;;;;6.93;3.20;;;13.10;99.90;;;;;;5046638;28;20215;-32
2023/03/22 04:49:21;;;;;;;7.20;3.27;;;13.10;99.90;;;;;;5046743;28;20305;-32
2023/03/22 04:51:49;;;;;;;6.47;2.92;;;13.10;99.90;;;;;;5046857;28;20578;-32
2023/03/22 04:54:19;;;;;;;10.00;3.25;;;13.10;99.90;;;;;;5044867;28;20267;-32
2023/03/22 04:56:49;;;;;;;5.60;2.70;;;13.10;99.90;;;;;;5046601;28;20204;-32
2023/03/22 04:59:20;;;;;;;7.27;2.97;;;13.10;99.90;;;;;;5045202;28;20204;-32
2023/03/22 05:01:50;;;;;;;8.57;3.00;;;13.10;99.90;;;;;;5029380;28;20236;-32
2023/03/22 05:04:20;;;;;;;6.83;3.07;;;13.10;99.90;;;;;;5046541;28;20224;-32
2023/03/22 05:06:47;;;;;;;6.43;2.90;;;13.10;99.90;;;;;;5045190;28;20200;-32
2023/03/22 05:09:15;;;;;;;5.57;2.47;;;13.10;99.90;;;;;;5028479;28;20246;-32
2023/03/22 05:11:42;;;;;;;10.53;2.87;;;13.10;99.90;;;;;;5044747;28;20226;-32
2023/03/22 05:14:09;;;;;;;6.37;2.57;;;13.10;99.90;;;;;;5044914;28;20232;-32
2023/03/22 05:16:39;;;;;;;7.30;2.80;;;13.10;99.90;;;;;;5028079;28;20224;-32
2023/03/22 05:19:12;;;;;;;8.23;3.80;;;13.10;99.90;;;;;;5044776;28;20294;-31
2023/03/22 05:21:43;;;;;;;7.43;3.20;;;13.10;99.90;;;;;;5044562;28;20212;-32
2023/03/22 05:24:15;;;;;;;7.93;3.20;;;13.10;99.90;;;;;;5049192;28;20204;-34
2023/03/22 05:26:45;;;;;;;7.13;3.33;;;13.10;99.90;;;;;;5052757;28;20234;-34
2023/03/22 05:29:16;;;;;;;9.33;3.23;;;13.10;99.90;;;;;;5051553;28;20354;-34
2023/03/22 05:31:46;;;;;;;5.77;3.20;;;13.00;99.90;;;;;;5053113;28;20204;-34
2023/03/22 05:34:13;;;;;;;7.20;3.30;;;13.10;99.90;;;;;;5051245;28;20200;-34
2023/03/22 05:36:45;;;;;;;10.10;3.13;;;13.00;99.90;;;;;;5052691;28;20678;-32
2023/03/22 05:39:14;;;;;;;7.70;3.00;;;13.00;99.90;;;;;;5051399;28;20269;-32
2023/03/22 05:41:41;;;;;;;8.27;3.23;;;13.00;99.90;;;;;;5035359;28;20207;-32
2023/03/22 05:44:11;;;;;;;7.57;3.17;;;13.00;99.90;;;;;;5053034;28;20223;-32
2023/03/22 05:46:42;;;;;;;7.10;2.80;;;13.00;99.90;;;;;;5052385;28;20750;-32
2023/03/22 05:49:12;;;;;;;8.23;2.60;;;13.00;99.90;;;;;;5051001;28;20216;-32
2023/03/22 05:51:41;;;;;;;8.67;2.83;;;13.00;99.90;;;;;;5051552;28;20597;-32
2023/03/22 05:54:11;;;;;;;8.93;2.77;;;13.10;99.90;;;;;;5052518;28;20322;-32
2023/03/22 05:56:39;;;;;;;8.17;2.83;;;13.10;99.90;;;;;;5052629;28;20202;-32
2023/03/22 05:59:06;;;;;;;6.43;2.90;;;13.10;99.90;;;;;;5053041;28;20323;-32
2023/03/22 06:01:33;;;;;;;9.53;3.03;;;13.10;99.90;;;;;;5052580;28;20654;-34
2023/03/22 06:04:01;;;;;;;7.93;2.73;;;13.10;99.90;;;;;;5050975;28;20266;-34
2023/03/22 06:06:32;;;;;;;5.43;2.70;;;13.00;99.90;;;;;;5052697;28;21018;-34
2023/03/22 06:08:59;;;;;;;6.53;2.80;;;13.00;99.90;;;;;;5052266;28;20238;-33
2023/03/22 06:11:49;;;;;;;10.10;2.70;;;13.10;99.90;;;;;;5052464;28;20216;-33
2023/03/22 06:14:16;;;;;;;5.73;2.60;;;13.00;99.90;;;;;;5050978;28;20500;-33
2023/03/22 06:16:48;;;;;;;8.93;3.20;;;13.10;99.90;;;;;;5034438;28;20290;-33
2023/03/22 06:19:16;;;;;;;9.63;2.83;;;13.10;99.90;;;;;;5052173;28;20675;-32
2023/03/22 06:21:47;;;;;;;9.57;2.60;;;13.10;99.90;;;;;;5052639;28;20318;-32
2023/03/22 06:24:14;;;;;;;7.23;2.37;;;13.10;99.90;;;;;;5052839;28;20291;-33
2023/03/22 06:26:42;;;;;;;7.03;2.13;;;13.10;99.90;;;;;;5050725;28;20200;-33
2023/03/22 06:29:13;;;;;;;6.57;2.40;;;13.10;99.90;;;;;;5051980;28;20263;-32
2023/03/22 06:31:42;;;;;;;6.57;2.03;;;13.10;99.90;;;;;;5051951;28;20195;-33
2023/03/22 06:34:10;;;;;;;7.73;2.40;;;13.10;99.90;;;;;;5033910;28;20223;-33
2023/03/22 06:36:37;;;;;;;9.90;2.50;;;13.10;99.90;;;;;;5047593;28;20311;-33
2023/03/22 06:39:07;;;;;;;8.67;2.47;;;13.10;99.90;;;;;;5046999;28;20265;-33
2023/03/22 06:41:36;;;;;;;9.77;2.20;;;13.10;99.90;;;;;;5048482;28;20655;-33
2023/03/22 06:44:10;;;;;;;10.57;2.63;;;13.10;99.90;;;;;;5048767;28;20204;-33
2023/03/22 06:46:37;;;;;;;7.73;2.17;;;13.10;99.90;;;;;;5046634;28;20314;-33
2023/03/22 06:49:11;;;;;;;12.37;3.60;;;13.10;99.90;;;;;;5048191;28;20255;-33
2023/03/22 06:51:41;;;;;;;9.47;2.27;;;13.10;99.90;;;;;;5048082;28;20503;-33
2023/03/22 06:54:12;;;;;;;7.97;2.60;;;13.10;99.90;;;;;;5047453;28;20236;-33
2023/03/22 06:56:39;;;;;;;6.80;2.70;;;13.10;99.90;;;;;;5048039;28;20303;-33
2023/03/22 06:59:06;;;;;;;10.63;2.57;;;13.10;99.90;;;;;;5046701;28;20203;-33
2023/03/22 07:01:33;;;;;;;9.17;2.40;;;13.10;99.90;;;;;;5046331;28;20295;-33
2023/03/22 07:04:05;;;;;;;7.80;2.50;;;13.20;99.90;;;;;;5047844;28;20231;-33
2023/03/22 07:06:32;;;;;;;8.80;2.40;;;13.20;99.90;;;;;;5046041;28;20286;-33
2023/03/22 07:09:05;;;;;;;7.87;2.93;;;13.20;99.90;;;;;;5046146;28;20259;-33
2023/03/22 07:11:32;;;;;;;10.10;2.47;;;13.30;99.90;;;;;;5046088;28;20220;-33
2023/03/22 07:14:00;;;;;;;7.10;2.53;;;13.30;99.90;;;;;;5046015;28;20281;-33
2023/03/22 07:16:27;;;;;;;13.13;2.43;;;13.30;99.90;;;;;;5046448;28;20273;-33
2023/03/22 07:18:57;;;;;;;8.40;2.13;;;13.30;99.90;;;;;;5045860;28;20784;-33
2023/03/22 07:21:26;;;;;;;13.20;2.93;;;13.30;99.90;;;;;;5047619;28;20200;-33
2023/03/22 07:23:54;;;;;;;8.40;2.27;;;13.30;99.90;;;;;;5045683;28;20240;-33
2023/03/22 07:26:25;;;;;;;6.00;2.27;;;13.30;99.90;;;;;;5047694;28;20205;-33
2023/03/22 07:28:54;;;;;;;6.37;2.00;;;13.40;99.90;;;;;;5047389;28;20277;-33
2023/03/22 07:31:24;;;;;;;7.70;2.53;;;13.40;99.90;;;;;;5029568;28;20231;-33
2023/03/22 07:33:54;;;;;;;8.17;2.70;;;13.40;99.90;;;;;;5047283;28;20211;-33
2023/03/22 07:36:24;;;;;;;11.93;2.23;;;13.50;99.90;;;;;;5047077;28;20200;-33
2023/03/22 07:38:53;;;;;;;9.20;2.43;;;13.50;99.90;;;;;;5047257;28;20342;-33
2023/03/22 07:41:24;;;;;;;8.40;2.20;;;13.50;99.90;;;;;;5047065;28;20220;-33
2023/03/22 07:43:51;;;;;;;8.23;2.37;;;13.50;99.90;;;;;;5047246;28;20200;-33
2023/03/22 07:46:35;;;;;;;9.40;2.30;;;13.60;99.90;;;;;;5047272;28;20226;-33
2023/03/22 07:49:07;;;;;;;8.73;2.10;;;13.60;99.90;;;;;;5047947;28;20223;-33
2023/03/22 07:51:36;;;;;;;9.10;2.10;;;13.60;99.90;;;;;;5047460;28;20299;-32
2023/03/22 07:54:06;;;;;;;9.07;3.17;;;13.60;99.90;;;;;;5047322;28;20346;-32
2023/03/22 07:56:36;;;;;;;6.57;2.30;;;13.60;99.90;;;;;;5047220;28;20200;-34
2023/03/22 07:59:06;;;;;;;7.70;2.63;;;13.70;99.90;;;;;;5047215;28;20572;-34
2023/03/22 08:01:38;;;;;;;5.47;2.00;;;13.70;99.90;;;;;;5047191;28;20306;-34
2023/03/22 08:04:05;;;;;;;8.43;2.27;;;13.80;99.90;;;;;;5045561;28;20261;-34
2023/03/22 08:06:39;;;;;;;8.87;1.93;;;13.90;99.90;;;;;;5045393;28;20224;-34
2023/03/22 08:09:07;;;;;;;9.23;1.83;;;13.90;99.90;;;;;;5047153;28;20694;-34
2023/03/22 08:11:35;;;;;;;10.33;2.20;;;14.00;99.90;;;;;;5047038;28;20283;-32
2023/03/22 08:14:05;;;;;;;9.83;2.47;;;14.00;99.90;;;;;;5045530;28;20545;-32
2023/03/22 08:16:37;;;;;;;15.23;2.70;;;14.00;99.90;;;;;;5047012;28;20732;-32
2023/03/22 08:19:05;;;;;;;10.33;2.20;;;14.10;99.90;;;;;;5046701;28;20236;-32
2023/03/22 08:21:35;;;;;;;8.43;2.17;;;14.10;99.90;;;;;;5046752;28;20717;-32
2023/03/22 08:24:07;;;;;;;9.77;2.40;;;14.10;99.90;;;;;;5046707;28;20216;-32
2023/03/22 08:26:36;;;;;;;10.60;2.27;;;14.10;99.90;;;;;;5047134;28;20667;-32
2023/03/22 08:29:06;;;;;;;6.50;1.60;;;14.10;99.90;;;;;;5046868;28;20216;-32
2023/03/22 08:31:33;;;;;;;9.47;2.07;;;14.10;99.90;;;;;;5047011;28;20215;-32
2023/03/22 08:34:05;;;;;;;9.80;1.90;;;14.10;99.90;;;;;;5045304;28;20212;-32
2023/03/22 08:36:36;;;;;;;12.50;2.30;;;14.20;99.90;;;;;;5046592;28;20196;-32
2023/03/22 08:39:07;;;;;;;11.20;2.50;;;14.20;99.90;;;;;;5046867;28;20192;-32
2023/03/22 08:41:41;;;;;;;9.33;2.30;;;14.30;99.90;;;;;;5044920;28;20760;-32
2023/03/22 08:44:13;;;;;;;7.67;2.00;;;14.30;99.90;;;;;;5044847;28;20321;-31
2023/03/22 08:46:43;;;;;;;11.60;2.63;;;14.30;99.90;;;;;;5044567;28;20242;-31
2023/03/22 08:49:13;;;;;;;9.70;2.20;;;14.40;99.90;;;;;;5046027;28;20256;-32
2023/03/22 08:51:43;;;;;;;5.87;2.20;;;14.40;99.90;;;;;;5044190;28;20628;-30
2023/03/22 08:54:13;;;;;;;3.95;1.60;;;14.50;99.90;;;;;;5045720;28;20331;-31
2023/03/22 08:56:47;;;;;;;9.80;1.80;;;14.60;99.90;;;;;;5045594;28;20254;-30
2023/03/22 08:59:25;;;;;;;7.20;1.80;;;14.60;99.90;;;;;;5045156;28;20230;-32
2023/03/22 09:01:54;;;;;;;9.57;1.90;;;14.70;99.90;;;;;;5045760;28;20204;-31
2023/03/22 09:04:25;;;;;;;8.77;1.90;;;14.80;99.90;;;;;;5028951;28;20274;-31
2023/03/22 09:06:52;;;;;;;11.37;2.73;;;14.90;99.90;;;;;;5045490;28;20295;-32
2023/03/22 09:09:19;;;;;;;15.17;2.47;;;14.90;99.90;;;;;;5043788;28;20232;-31
2023/03/22 09:11:46;;;;;;;7.03;1.63;;;15.00;99.90;;;;;;5045543;28;20761;-32
2023/03/22 09:14:13;;;;;;;6.23;1.93;;;15.10;99.90;;;;;;5044306;28;20254;-31
2023/03/22 09:16:44;;;;;;;7.30;1.97;;;15.10;99.90;;;;;;5044514;28;20196;-31
2023/03/22 09:19:14;;;;;;;7.43;1.80;;;15.20;99.90;;;;;;5044508;28;20270;-31
2023/03/22 09:21:44;;;;;;;9.20;1.93;;;15.30;99.90;;;;;;5044693;28;20667;-31
2023/03/22 09:24:11;;;;;;;7.57;2.47;;;15.30;99.90;;;;;;5044532;28;20239;-31
2023/03/22 09:26:38;;;;;;;12.55;2.40;;;15.30;99.90;;;;;;5046300;28;20278;-32
2023/03/22 09:29:12;;;;;;;8.57;1.90;;;15.40;99.90;;;;;;5045926;28;20210;-31
2023/03/22 09:31:42;;;;;;;5.10;1.73;;;15.40;99.90;;;;;;5045561;28;20223;-33
2023/03/22 09:34:09;;;;;;;9.65;1.77;;;15.40;99.90;;;;;;5046204;28;20216;-31
2023/03/22 09:36:39;;;;;;;8.85;2.30;;;15.30;99.90;;;;;;5044621;28;20655;-31
2023/03/22 09:39:09;;;;;;;9.13;1.93;;;15.30;99.90;;;;;;5046136;28;20196;-31
2023/03/22 09:42:17;;;;;;;10.13;2.10;;;15.20;99.90;;;;;;5045702;28;20208;-32
2023/03/22 09:44:45;;;;;;;10.47;1.87;;;15.30;99.90;;;;;;4986647;28;20303;-31
2023/03/22 09:47:17;;;;;;;10.40;1.93;;;15.30;99.90;;;;;;5003344;28;20196;-37
2023/03/22 09:49:49;;;;;;;7.10;1.57;;;15.30;99.90;;;;;;5025640;28;20298;-31
2023/03/22 09:52:20;;;;;;;10.40;1.73;;;15.30;99.90;;;;;;5044467;28;20321;-31
2023/03/22 09:54:52;;;;;;;7.32;1.65;;;15.20;99.90;;;;;;5043853;28;20267;-31
2023/03/22 09:57:19;;;;;;;7.80;1.77;;;15.30;99.90;;;;;;5043436;28;20250;-31
2023/03/22 09:59:55;;;;;;;10.30;1.90;;;15.30;99.90;;;;;;5045048;28;20215;-31
2023/03/22 10:02:57;;;;;;;7.30;1.57;;;15.30;99.90;;;;;;5043717;28;20323;-31
2023/03/22 10:05:37;;;;;;;9.95;2.40;;;15.30;99.90;;;;;;5010633;28;20651;-31
2023/03/22 10:08:22;;;;;;;14.60;3.35;;;15.30;99.90;;;;;;5044909;28;20231;-32
2023/03/22 10:10:51;;;;;;;18.02;2.72;;;15.30;99.90;;;;;;5045391;28;20252;-31
2023/03/22 10:13:41;;;;;;;7.35;1.88;;;15.30;99.90;;;;;;5048953;28;20203;-31
2023/03/22 10:16:15;;;;;;;22.70;3.37;;;15.30;99.90;;;;;;5040468;28;20261;-31
2023/03/22 10:18:53;;;;;;;8.82;1.92;;;15.30;99.90;;;;;;5048764;28;20291;-31
2023/03/22 10:21:25;;;;;;;5.63;1.53;;;15.30;99.90;;;;;;5049010;28;20495;-31
2023/03/22 10:24:06;;;;;;;4.57;1.70;;;15.30;99.90;;;;;;5048556;28;20209;-31
2023/03/22 10:26:39;;;;;;;6.57;1.57;;;15.30;99.90;;;;;;5047106;28;20319;-31
2023/03/22 10:29:19;;;;;;;4.78;1.20;;;15.40;99.90;;;;;;5048537;28;20687;-31
2023/03/22 10:31:49;;;;;;;9.20;1.48;;;15.30;99.90;;;;;;5048449;28;20606;-32
2023/03/22 10:34:30;;;;;;;6.40;1.57;;;15.30;99.90;;;;;;5047171;28;20263;-31
2023/03/22 10:37:02;;;;;;;6.65;1.70;;;15.30;99.90;;;;;;5046953;28;20204;-31
2023/03/22 10:39:36;;;;;;;6.63;1.63;;;15.30;99.90;;;;;;5046972;28;20204;-32
2023/03/22 10:42:15;;;;;;;5.23;1.83;;;15.30;99.90;;;;;;5047214;28;20215;-32
2023/03/22 10:44:48;;;;;;;6.37;1.20;;;15.30;99.90;;;;;;5048389;28;20200;-30
2023/03/22 10:47:24;;;;;;;5.10;1.70;;;15.30;99.90;;;;;;5046787;28;20208;-32
2023/03/22 10:49:55;;;;;;;6.90;1.67;;;15.30;99.90;;;;;;5048191;28;20260;-32
2023/03/22 10:52:46;;;;;;;7.53;1.83;;;15.30;99.90;;;;;;5048103;28;20699;-32
2023/03/22 10:55:15;;;;;;;4.80;1.40;;;15.30;99.90;;;;;;5046838;28;20224;-33
2023/03/22 10:58:00;;;;;;;6.97;1.50;;;15.30;99.90;;;;;;5048346;28;20640;-32
2023/03/22 11:00:27;;;;;;;6.60;1.83;;;15.30;99.90;;;;;;5048244;28;20287;-32
2023/03/22 11:03:00;;;;;;;4.97;1.87;;;15.30;99.90;;;;;;5030856;28;20212;-32
2023/03/22 11:05:29;;;;;;;5.63;1.90;;;15.30;99.90;;;;;;5048119;28;20240;-32
2023/03/22 11:08:05;;;;;;;3.47;1.23;;;15.30;99.90;;;;;;5047992;28;20243;-32
2023/03/22 11:10:35;;;;;;;10.17;2.03;;;15.30;99.90;;;;;;5047097;28;20793;-32
2023/03/22 11:13:08;;;;;;;5.57;1.75;;;15.30;99.90;;;;;;5048183;28;20695;-33
2023/03/22 11:15:39;;;;;;;6.10;1.53;;;15.30;99.90;;;;;;5048538;28;20212;-32
2023/03/22 11:18:11;;;;;;;3.77;1.40;;;15.40;99.90;;;;;;5048456;28;20726;-32
2023/03/22 11:20:54;;;;;;;7.13;1.50;;;15.50;99.90;;;;;;5047693;28;20206;-33
2023/03/22 11:23:22;;;;;;;5.00;1.57;;;15.60;99.90;;;;;;5046892;28;20232;-32
2023/03/22 11:25:57;;;;;;;5.23;1.53;;;15.60;99.90;;;;;;5030382;28;20204;-34
2023/03/22 11:28:35;;;;;;;4.73;1.73;;;15.70;99.90;;;;;;5046499;28;20205;-32
2023/03/22 11:31:04;;;;;;;5.20;1.90;;;15.70;99.90;;;;;;5047843;28;20343;-32
2023/03/22 11:33:34;;;;;;;4.15;1.73;;;15.70;99.90;;;;;;5047934;28;20690;-32
2023/03/22 11:36:17;;;;;;;5.67;1.50;;;15.80;99.90;;;;;;5046190;28;20712;-32
2023/03/22 11:38:45;;;;;;;3.92;1.30;;;15.80;99.90;;;;;;5047858;28;20207;-33
2023/03/22 11:41:21;;;;;;;4.30;1.50;;;15.80;99.90;;;;;;5047660;28;20652;-33
2023/03/22 11:44:02;;;;;;;8.10;1.60;;;15.80;99.90;;;;;;5048171;28;20327;-32
2023/03/22 11:46:37;;;;;;;5.70;1.60;;;15.70;99.90;;;;;;5047617;28;20227;-32
2023/03/22 11:49:07;;;;;;;8.03;1.70;;;15.70;99.90;;;;;;5047378;28;20625;-32
2023/03/22 11:51:43;;;;;;;7.00;2.10;;;15.60;99.90;;;;;;5047091;28;20224;-33
2023/03/22 11:54:28;;;;;;;10.17;1.87;;;15.60;99.90;;;;;;5047267;28;20230;-33
2023/03/22 11:57:02;;;;;;;9.67;2.63;;;15.60;99.90;;;;;;5045710;28;20200;-32
2023/03/22 11:59:37;;;;;;;8.80;2.07;;;15.60;99.90;;;;;;5047336;28;20287;-32
2023/03/22 12:02:27;;;;;;;13.13;2.27;;;15.60;99.90;;;;;;5045756;28;20675;-33
2023/03/22 12:05:04;;;;;;;7.50;1.90;;;15.60;99.90;;;;;;5047090;28;20611;-32
2023/03/22 12:07:34;;;;;;;8.95;2.55;;;15.50;99.90;;;;;;5047148;28;20211;-32
2023/03/22 12:10:23;;;;;;;6.87;1.80;;;15.50;99.90;;;;;;5045173;28;20220;-32
2023/03/22 12:12:56;;;;;;;5.30;1.77;;;15.50;99.90;;;;;;5045198;28;20279;-33
2023/03/22 12:15:46;;;;;;;6.77;2.20;;;15.50;99.90;;;;;;5046459;28;20196;-32
2023/03/22 12:18:31;;;;;;;9.13;1.87;;;15.50;99.90;;;;;;5046425;28;20629;-31
2023/03/22 12:20:59;;;;;;;9.27;2.20;;;15.60;99.90;;;;;;5045308;28;20200;-31
2023/03/22 12:23:36;;;;;;;5.82;1.73;;;15.60;99.90;;;;;;5046795;28;20204;-33
2023/03/22 12:26:05;;;;;;;8.57;2.50;;;15.70;99.90;;;;;;5046808;28;20627;-31
2023/03/22 12:29:13;;;;;;;8.93;2.30;;;15.80;99.90;;;;;;5046997;28;20278;-31
2023/03/22 12:32:05;;;;;;;9.53;2.20;;;15.90;99.90;;;;;;5046873;28;20293;-31
2023/03/22 12:34:46;;;;;;;7.77;1.90;;;16.00;99.90;;;;;;5046577;28;20352;-31
2023/03/22 12:37:26;;;;;;;5.80;2.00;;;16.00;99.90;;;;;;5045132;28;20238;-32
2023/03/22 12:40:07;;;;;;;4.43;1.93;;;15.90;99.90;;;;;;5046752;28;20250;-31
2023/03/22 12:42:39;;;;;;;4.68;1.85;;;16.00;99.90;;;;;;5046350;28;20295;-32
2023/03/22 12:45:25;;;;;;;8.50;2.00;;;16.00;99.90;;;;;;5046535;28;20207;-32
2023/03/22 12:48:26;;;;;;;11.20;2.03;;;15.90;99.90;;;;;;5045031;28;20750;-31
2023/03/22 12:51:04;;;;;;;4.77;1.70;;;16.00;99.90;;;;;;5044651;28;20232;-32
2023/03/22 12:53:43;;;;;;;6.13;2.17;;;16.00;99.90;;;;;;5046319;28;20254;-31
2023/03/22 12:56:38;;;;;;;6.17;1.80;;;16.00;99.90;;;;;;5046695;28;20619;-30
2023/03/22 12:59:16;;;;;;;9.77;3.13;;;16.00;99.90;;;;;;5044555;28;20671;-31
2023/03/22 13:01:57;;;;;;;7.60;2.30;;;15.90;99.90;;;;;;5029238;28;20211;-30
2023/03/22 13:04:35;;;;;;;8.50;2.17;;;15.90;99.90;;;;;;5046567;28;20227;-30
2023/03/22 13:07:15;;;;;;;12.48;2.85;;;15.90;99.90;;;;;;5046567;28;20567;-31
2023/03/22 13:09:50;;;;;;;9.00;2.50;;;15.90;99.90;;;;;;5044651;28;20663;-31
2023/03/22 13:12:20;;;;;;;4.17;2.00;;;15.90;99.90;;;;;;5044051;28;20273;-31
2023/03/22 13:14:55;;;;;;;9.50;2.23;;;15.90;99.90;;;;;;5046269;28;20294;-31
2023/03/22 13:17:22;;;;;;;5.33;2.30;;;15.90;99.90;;;;;;5046223;28;20191;-31